Busselton Regional Airport

Airport
ICAO code: 
YBLN
IATA Code: 
BQB
Summary
ICAO Region: 
APAC
Territory: 
Location: 
Brusselton, Western Australia
Serving: 
Brusselton
Elevation: 
55 ft
Coordinates: 
Aerial View: 
33° 41' 13.999" S, 115° 24' 1.001" E
Metar
Observation
YBLN 080100Z AUTO 08015KT 9999 // NCD 27/11 Q1012 RF00.0/000.0
Station
Busselton Airport
Date/Time
2021-12-08 01:00:00
Wind direction
80°
Wind speed
15 kts
Lowest cloud amount
no clouds detected
Temperature
27°C
Dew point
11°C
Humidity
36%
QNH
1012 hPa
Weather condition
n/a

Runways

Designator Length Width Surface Rops
3/21 1800 30 ASP No/No
Airport map: 
Aerial View: 

SKYbrary Partners:

Safety knowledge contributed by: